sensor_id;sensor_type;location;lat;lon;timestamp;temperature;humidity
9043;DHT22;4556;49.150;8.808;2023-03-16T09:45:36;8.90;99.90
9043;DHT22;4556;49.150;8.808;2023-03-16T09:48:05;7.30;99.90
9043;DHT22;4556;49.150;8.808;2023-03-16T09:50:37;7.40;99.90
9043;DHT22;4556;49.150;8.808;2023-03-16T09:53:10;7.40;99.90
9043;DHT22;4556;49.150;8.808;2023-03-16T09:55:42;7.40;99.90
9043;DHT22;4556;49.150;8.808;2023-03-16T09:58:15;7.40;99.90
9043;DHT22;4556;49.150;8.808;2023-03-16T10:00:53;7.30;99.90
9043;DHT22;4556;49.150;8.808;2023-03-16T10:03:34;7.40;99.90
9043;DHT22;4556;49.150;8.808;2023-03-16T10:06:04;7.50;99.90
9043;DHT22;4556;49.150;8.808;2023-03-16T10:08:39;7.40;99.90
9043;DHT22;4556;49.150;8.808;2023-03-16T10:11:24;7.40;99.90
9043;DHT22;4556;49.150;8.808;2023-03-16T10:13:55;7.40;99.90
9043;DHT22;4556;49.150;8.808;2023-03-16T10:16:29;7.60;99.90
9043;DHT22;4556;49.150;8.808;2023-03-16T10:19:01;7.70;99.90
9043;DHT22;4556;49.150;8.808;2023-03-16T10:21:40;7.80;99.90
9043;DHT22;4556;49.150;8.808;2023-03-16T10:24:18;7.90;99.90
9043;DHT22;4556;49.150;8.808;2023-03-16T10:26:54;8.00;99.90
9043;DHT22;4556;49.150;8.808;2023-03-16T10:29:25;8.20;99.90
9043;DHT22;4556;49.150;8.808;2023-03-16T10:31:58;8.20;99.90
9043;DHT22;4556;49.150;8.808;2023-03-16T10:34:27;8.10;99.90
9043;DHT22;4556;49.150;8.808;2023-03-16T10:36:55;8.10;99.90
9043;DHT22;4556;49.150;8.808;2023-03-16T10:39:22;8.10;99.90
9043;DHT22;4556;49.150;8.808;2023-03-16T10:41:55;8.10;99.90
9043;DHT22;4556;49.150;8.808;2023-03-16T10:44:25;8.10;99.90
9043;DHT22;4556;49.150;8.808;2023-03-16T10:47:00;8.30;99.90
9043;DHT22;4556;49.150;8.808;2023-03-16T10:49:34;8.40;99.90
9043;DHT22;4556;49.150;8.808;2023-03-16T10:52:10;8.40;99.90
9043;DHT22;4556;49.150;8.808;2023-03-16T10:54:40;8.40;99.90
9043;DHT22;4556;49.150;8.808;2023-03-16T10:57:13;8.60;99.90
9043;DHT22;4556;49.150;8.808;2023-03-16T10:59:47;8.70;99.90
9043;DHT22;4556;49.150;8.808;2023-03-16T11:02:17;8.70;99.90
9043;DHT22;4556;49.150;8.808;2023-03-16T11:04:45;8.70;99.90
9043;DHT22;4556;49.150;8.808;2023-03-16T11:07:15;8.80;99.90
9043;DHT22;4556;49.150;8.808;2023-03-16T11:09:43;9.00;99.90
9043;DHT22;4556;49.150;8.808;2023-03-16T11:12:13;9.10;99.90
9043;DHT22;4556;49.150;8.808;2023-03-16T11:14:45;9.00;99.90
9043;DHT22;4556;49.150;8.808;2023-03-16T11:17:17;9.00;99.90
9043;DHT22;4556;49.150;8.808;2023-03-16T11:19:50;9.20;99.90
9043;DHT22;4556;49.150;8.808;2023-03-16T11:22:20;9.20;99.90
9043;DHT22;4556;49.150;8.808;2023-03-16T11:24:51;9.50;99.90
9043;DHT22;4556;49.150;8.808;2023-03-16T11:27:23;9.50;99.90
9043;DHT22;4556;49.150;8.808;2023-03-16T11:29:58;9.80;99.90
9043;DHT22;4556;49.150;8.808;2023-03-16T11:32:33;9.30;99.90
9043;DHT22;4556;49.150;8.808;2023-03-16T11:35:02;9.30;99.90
9043;DHT22;4556;49.150;8.808;2023-03-16T11:37:49;9.40;99.90
9043;DHT22;4556;49.150;8.808;2023-03-16T11:43:29;9.70;99.90
9043;DHT22;4556;49.150;8.808;2023-03-16T11:46:08;9.60;99.90
9043;DHT22;4556;49.150;8.808;2023-03-16T11:48:40;9.70;99.90
9043;DHT22;4556;49.150;8.808;2023-03-16T11:51:15;9.70;99.90
9043;DHT22;4556;49.150;8.808;2023-03-16T11:53:49;9.80;99.90
9043;DHT22;4556;49.150;8.808;2023-03-16T11:56:27;9.90;99.90
9043;DHT22;4556;49.150;8.808;2023-03-16T11:59:09;10.00;99.90
9043;DHT22;4556;49.150;8.808;2023-03-16T12:01:46;10.10;99.90
9043;DHT22;4556;49.150;8.808;2023-03-16T12:04:33;10.20;99.90
9043;DHT22;4556;49.150;8.808;2023-03-16T12:07:15;10.60;99.90
9043;DHT22;4556;49.150;8.808;2023-03-16T12:10:01;10.60;99.90
9043;DHT22;4556;49.150;8.808;2023-03-16T12:12:35;10.60;99.90
9043;DHT22;4556;49.150;8.808;2023-03-16T12:15:16;10.50;99.90
9043;DHT22;4556;49.150;8.808;2023-03-16T12:17:47;10.50;99.90
9043;DHT22;4556;49.150;8.808;2023-03-16T12:20:20;10.70;99.90
9043;DHT22;4556;49.150;8.808;2023-03-16T12:22:51;10.90;99.90
9043;DHT22;4556;49.150;8.808;2023-03-16T12:25:21;10.70;99.90
9043;DHT22;4556;49.150;8.808;2023-03-16T12:27:51;10.50;99.90
9043;DHT22;4556;49.150;8.808;2023-03-16T12:30:26;10.80;99.90
9043;DHT22;4556;49.150;8.808;2023-03-16T12:33:03;11.00;99.90
9043;DHT22;4556;49.150;8.808;2023-03-16T12:35:42;11.20;99.90
9043;DHT22;4556;49.150;8.808;2023-03-16T12:38:29;11.30;99.90
9043;DHT22;4556;49.150;8.808;2023-03-16T12:41:05;11.30;99.90
9043;DHT22;4556;49.150;8.808;2023-03-16T12:43:46;11.30;99.90
9043;DHT22;4556;49.150;8.808;2023-03-16T12:46:24;11.90;99.90
9043;DHT22;4556;49.150;8.808;2023-03-16T12:48:57;11.00;99.90
9043;DHT22;4556;49.150;8.808;2023-03-16T12:51:34;11.30;99.90
9043;DHT22;4556;49.150;8.808;2023-03-16T12:54:02;11.30;99.90
9043;DHT22;4556;49.150;8.808;2023-03-16T12:56:31;11.30;99.90
9043;DHT22;4556;49.150;8.808;2023-03-16T12:59:02;11.40;99.90
9043;DHT22;4556;49.150;8.808;2023-03-16T13:01:36;11.30;99.90
9043;DHT22;4556;49.150;8.808;2023-03-16T13:04:09;11.30;99.90
9043;DHT22;4556;49.150;8.808;2023-03-16T13:06:42;11.10;99.90
9043;DHT22;4556;49.150;8.808;2023-03-16T13:09:11;11.50;99.90
9043;DHT22;4556;49.150;8.808;2023-03-16T13:11:44;11.20;99.90
9043;DHT22;4556;49.150;8.808;2023-03-16T13:14:29;11.80;99.90
9043;DHT22;4556;49.150;8.808;2023-03-16T13:17:04;11.40;99.90
9043;DHT22;4556;49.150;8.808;2023-03-16T13:19:32;12.30;99.90
9043;DHT22;4556;49.150;8.808;2023-03-16T13:22:18;11.60;99.90
9043;DHT22;4556;49.150;8.808;2023-03-16T13:24:50;11.10;99.90
9043;DHT22;4556;49.150;8.808;2023-03-16T13:27:21;11.00;99.90
9043;DHT22;4556;49.150;8.808;2023-03-16T13:29:55;11.00;99.90
9043;DHT22;4556;49.150;8.808;2023-03-16T13:32:24;11.30;99.90
9043;DHT22;4556;49.150;8.808;2023-03-16T13:34:57;11.60;99.90
9043;DHT22;4556;49.150;8.808;2023-03-16T13:37:27;11.80;99.90
9043;DHT22;4556;49.150;8.808;2023-03-16T13:40:18;11.90;99.90
9043;DHT22;4556;49.150;8.808;2023-03-16T13:42:49;12.20;99.90
9043;DHT22;4556;49.150;8.808;2023-03-16T13:45:20;12.50;99.90
9043;DHT22;4556;49.150;8.808;2023-03-16T13:47:48;12.30;99.90
9043;DHT22;4556;49.150;8.808;2023-03-16T13:50:16;12.70;99.90
9043;DHT22;4556;49.150;8.808;2023-03-16T13:52:55;12.20;99.90
9043;DHT22;4556;49.150;8.808;2023-03-16T13:55:29;12.60;99.90
9043;DHT22;4556;49.150;8.808;2023-03-16T13:58:00;12.30;99.90
9043;DHT22;4556;49.150;8.808;2023-03-16T14:00:30;12.40;99.90
9043;DHT22;4556;49.150;8.808;2023-03-16T14:03:10;12.30;99.90
9043;DHT22;4556;49.150;8.808;2023-03-16T14:05:39;12.40;99.90
9043;DHT22;4556;49.150;8.808;2023-03-16T14:08:14;12.40;99.90
9043;DHT22;4556;49.150;8.808;2023-03-16T14:10:42;13.20;99.90
9043;DHT22;4556;49.150;8.808;2023-03-16T14:13:22;12.50;99.90
9043;DHT22;4556;49.150;8.808;2023-03-16T14:15:50;12.30;99.90
9043;DHT22;4556;49.150;8.808;2023-03-16T14:18:26;12.10;99.90
9043;DHT22;4556;49.150;8.808;2023-03-16T14:20:55;12.70;99.90
9043;DHT22;4556;49.150;8.808;2023-03-16T14:23:27;12.20;99.90
9043;DHT22;4556;49.150;8.808;2023-03-16T14:26:05;12.10;99.90
9043;DHT22;4556;49.150;8.808;2023-03-16T14:28:36;12.80;99.90
9043;DHT22;4556;49.150;8.808;2023-03-16T14:31:09;11.90;99.90
9043;DHT22;4556;49.150;8.808;2023-03-16T14:33:39;12.10;99.90
9043;DHT22;4556;49.150;8.808;2023-03-16T14:36:10;12.30;99.90
9043;DHT22;4556;49.150;8.808;2023-03-16T14:38:46;11.80;99.90
9043;DHT22;4556;49.150;8.808;2023-03-16T14:41:23;11.70;99.90
9043;DHT22;4556;49.150;8.808;2023-03-16T14:43:53;12.20;99.90
9043;DHT22;4556;49.150;8.808;2023-03-16T14:46:25;11.50;99.90
9043;DHT22;4556;49.150;8.808;2023-03-16T14:49:01;11.90;99.90
9043;DHT22;4556;49.150;8.808;2023-03-16T14:51:29;12.00;99.90
9043;DHT22;4556;49.150;8.808;2023-03-16T14:53:59;12.30;99.90
9043;DHT22;4556;49.150;8.808;2023-03-16T14:56:32;12.10;99.90
9043;DHT22;4556;49.150;8.808;2023-03-16T14:58:59;12.20;99.90
9043;DHT22;4556;49.150;8.808;2023-03-16T15:01:26;12.10;99.90
9043;DHT22;4556;49.150;8.808;2023-03-16T15:03:56;12.00;99.90
9043;DHT22;4556;49.150;8.808;2023-03-16T15:06:24;12.00;99.90
9043;DHT22;4556;49.150;8.808;2023-03-16T15:08:52;11.80;99.90
9043;DHT22;4556;49.150;8.808;2023-03-16T15:11:21;11.80;99.90
9043;DHT22;4556;49.150;8.808;2023-03-16T15:13:52;11.90;99.90
9043;DHT22;4556;49.150;8.808;2023-03-16T15:16:45;11.40;99.90
9043;DHT22;4556;49.150;8.808;2023-03-16T15:19:13;12.00;99.90
9043;DHT22;4556;49.150;8.808;2023-03-16T15:21:40;11.70;99.90
9043;DHT22;4556;49.150;8.808;2023-03-16T15:24:28;11.30;99.90
9043;DHT22;4556;49.150;8.808;2023-03-16T15:27:21;11.80;99.90
9043;DHT22;4556;49.150;8.808;2023-03-16T15:29:55;11.70;99.90
9043;DHT22;4556;49.150;8.808;2023-03-16T15:32:22;11.70;99.90
9043;DHT22;4556;49.150;8.808;2023-03-16T15:34:55;11.60;99.90
9043;DHT22;4556;49.150;8.808;2023-03-16T15:37:22;11.60;99.90
9043;DHT22;4556;49.150;8.808;2023-03-16T15:39:55;11.60;99.90
9043;DHT22;4556;49.150;8.808;2023-03-16T15:42:24;11.60;99.90
9043;DHT22;4556;49.150;8.808;2023-03-16T15:44:51;11.50;99.90
9043;DHT22;4556;49.150;8.808;2023-03-16T15:47:21;11.50;99.90
9043;DHT22;4556;49.150;8.808;2023-03-16T15:49:50;12.00;99.90
9043;DHT22;4556;49.150;8.808;2023-03-16T15:52:33;11.30;99.90
9043;DHT22;4556;49.150;8.808;2023-03-16T15:55:37;11.10;99.90
9043;DHT22;4556;49.150;8.808;2023-03-16T15:58:23;11.20;99.90
9043;DHT22;4556;49.150;8.808;2023-03-16T16:00:53;11.10;99.90
9043;DHT22;4556;49.150;8.808;2023-03-16T16:03:27;11.10;99.90
9043;DHT22;4556;49.150;8.808;2023-03-16T16:06:17;11.10;99.90
9043;DHT22;4556;49.150;8.808;2023-03-16T16:08:58;11.30;99.90
9043;DHT22;4556;49.150;8.808;2023-03-16T16:11:26;11.50;99.90
9043;DHT22;4556;49.150;8.808;2023-03-16T16:13:56;11.30;99.90
9043;DHT22;4556;49.150;8.808;2023-03-16T16:16:25;11.20;99.90
9043;DHT22;4556;49.150;8.808;2023-03-16T16:19:01;10.90;99.90
9043;DHT22;4556;49.150;8.808;2023-03-16T16:21:40;10.80;99.90
9043;DHT22;4556;49.150;8.808;2023-03-16T16:24:26;11.00;99.90
9043;DHT22;4556;49.150;8.808;2023-03-16T16:27:09;10.60;99.90
9043;DHT22;4556;49.150;8.808;2023-03-16T16:32:48;10.60;99.90
9043;DHT22;4556;49.150;8.808;2023-03-16T16:35:18;10.60;99.90
9043;DHT22;4556;49.150;8.808;2023-03-16T16:38:03;10.50;99.90
9043;DHT22;4556;49.150;8.808;2023-03-16T16:40:52;10.40;99.90
9043;DHT22;4556;49.150;8.808;2023-03-16T16:43:30;10.40;99.90
9043;DHT22;4556;49.150;8.808;2023-03-16T16:46:00;10.40;99.90
9043;DHT22;4556;49.150;8.808;2023-03-16T16:48:34;10.40;99.90
9043;DHT22;4556;49.150;8.808;2023-03-16T16:51:23;10.30;99.90
9043;DHT22;4556;49.150;8.808;2023-03-16T16:53:54;10.20;99.90
9043;DHT22;4556;49.150;8.808;2023-03-16T16:56:34;10.10;99.90
9043;DHT22;4556;49.150;8.808;2023-03-16T16:59:13;10.60;99.90
9043;DHT22;4556;49.150;8.808;2023-03-16T17:01:52;10.00;99.90
9043;DHT22;4556;49.150;8.808;2023-03-16T17:04:25;9.90;99.90
9043;DHT22;4556;49.150;8.808;2023-03-16T17:06:56;9.80;99.90
9043;DHT22;4556;49.150;8.808;2023-03-16T17:09:26;9.70;99.90
9043;DHT22;4556;49.150;8.808;2023-03-16T17:11:58;9.80;99.90
9043;DHT22;4556;49.150;8.808;2023-03-16T17:14:40;9.70;99.90
9043;DHT22;4556;49.150;8.808;2023-03-16T17:17:18;9.90;99.90
9043;DHT22;4556;49.150;8.808;2023-03-16T17:19:47;9.90;99.90
9043;DHT22;4556;49.150;8.808;2023-03-16T17:22:20;9.60;99.90
9043;DHT22;4556;49.150;8.808;2023-03-16T17:24:49;9.50;99.90
9043;DHT22;4556;49.150;8.808;2023-03-16T17:27:20;9.40;99.90
9043;DHT22;4556;49.150;8.808;2023-03-16T17:29:53;9.50;99.90
9043;DHT22;4556;49.150;8.808;2023-03-16T17:32:28;9.20;99.90
9043;DHT22;4556;49.150;8.808;2023-03-16T17:34:56;9.30;99.90
9043;DHT22;4556;49.150;8.808;2023-03-16T17:37:23;9.30;99.90
9043;DHT22;4556;49.150;8.808;2023-03-16T17:39:50;9.30;99.90
9043;DHT22;4556;49.150;8.808;2023-03-16T17:42:19;9.30;99.90
9043;DHT22;4556;49.150;8.808;2023-03-16T17:44:48;9.30;99.90
9043;DHT22;4556;49.150;8.808;2023-03-16T17:47:19;9.20;99.90
9043;DHT22;4556;49.150;8.808;2023-03-16T17:49:46;9.00;99.90
9043;DHT22;4556;49.150;8.808;2023-03-16T17:52:18;8.90;99.90
9043;DHT22;4556;49.150;8.808;2023-03-16T17:54:47;9.40;99.90
9043;DHT22;4556;49.150;8.808;2023-03-16T17:57:16;9.00;99.90
9043;DHT22;4556;49.150;8.808;2023-03-16T17:59:45;9.70;99.90
9043;DHT22;4556;49.150;8.808;2023-03-16T18:02:37;8.80;99.90
9043;DHT22;4556;49.150;8.808;2023-03-16T18:05:15;8.80;99.90
9043;DHT22;4556;49.150;8.808;2023-03-16T18:07:44;8.70;99.90
9043;DHT22;4556;49.150;8.808;2023-03-16T18:10:16;9.00;99.90
9043;DHT22;4556;49.150;8.808;2023-03-16T18:12:46;8.60;99.90
9043;DHT22;4556;49.150;8.808;2023-03-16T18:15:15;8.50;99.90
9043;DHT22;4556;49.150;8.808;2023-03-16T18:17:43;8.40;99.90
9043;DHT22;4556;49.150;8.808;2023-03-16T18:20:20;8.50;99.90
9043;DHT22;4556;49.150;8.808;2023-03-16T18:22:49;9.40;99.90
9043;DHT22;4556;49.150;8.808;2023-03-16T18:25:40;8.60;99.90
9043;DHT22;4556;49.150;8.808;2023-03-16T18:28:11;8.50;99.90
9043;DHT22;4556;49.150;8.808;2023-03-16T18:30:43;8.50;99.90
9043;DHT22;4556;49.150;8.808;2023-03-16T18:33:30;8.50;99.90
9043;DHT22;4556;49.150;8.808;2023-03-16T18:36:16;8.90;99.90
9043;DHT22;4556;49.150;8.808;2023-03-16T18:38:50;8.60;99.90
9043;DHT22;4556;49.150;8.808;2023-03-16T18:41:20;8.60;99.90
9043;DHT22;4556;49.150;8.808;2023-03-16T18:43:47;8.60;99.90
9043;DHT22;4556;49.150;8.808;2023-03-16T18:46:24;8.50;99.90
9043;DHT22;4556;49.150;8.808;2023-03-16T18:51:52;8.60;99.90
9043;DHT22;4556;49.150;8.808;2023-03-16T18:54:22;8.60;99.90
9043;DHT22;4556;49.150;8.808;2023-03-16T18:56:50;8.60;99.90
9043;DHT22;4556;49.150;8.808;2023-03-16T18:59:21;8.40;99.90
9043;DHT22;4556;49.150;8.808;2023-03-16T19:01:49;8.40;99.90
9043;DHT22;4556;49.150;8.808;2023-03-16T19:04:21;8.50;99.90
9043;DHT22;4556;49.150;8.808;2023-03-16T19:06:59;9.20;99.90
9043;DHT22;4556;49.150;8.808;2023-03-16T19:09:28;8.60;99.90
9043;DHT22;4556;49.150;8.808;2023-03-16T19:11:56;8.50;99.90
9043;DHT22;4556;49.150;8.808;2023-03-16T19:14:25;8.40;99.90
9043;DHT22;4556;49.150;8.808;2023-03-16T19:16:53;8.50;99.90
9043;DHT22;4556;49.150;8.808;2023-03-16T19:19:22;8.90;99.90
9043;DHT22;4556;49.150;8.808;2023-03-16T19:21:51;8.20;99.90
9043;DHT22;4556;49.150;8.808;2023-03-16T19:24:21;8.10;99.90
9043;DHT22;4556;49.150;8.808;2023-03-16T19:26:51;8.00;99.90
9043;DHT22;4556;49.150;8.808;2023-03-16T19:29:22;8.00;99.90
9043;DHT22;4556;49.150;8.808;2023-03-16T19:31:54;8.00;99.90
9043;DHT22;4556;49.150;8.808;2023-03-16T19:34:21;8.00;99.90
9043;DHT22;4556;49.150;8.808;2023-03-16T19:36:48;8.00;99.90
9043;DHT22;4556;49.150;8.808;2023-03-16T19:39:16;7.90;99.90
9043;DHT22;4556;49.150;8.808;2023-03-16T19:41:45;7.90;99.90
9043;DHT22;4556;49.150;8.808;2023-03-16T19:44:16;7.90;99.90
9043;DHT22;4556;49.150;8.808;2023-03-16T19:46:45;8.00;99.90
9043;DHT22;4556;49.150;8.808;2023-03-16T19:49:15;7.90;99.90
9043;DHT22;4556;49.150;8.808;2023-03-16T19:51:43;7.90;99.90
9043;DHT22;4556;49.150;8.808;2023-03-16T19:54:20;7.90;99.90
9043;DHT22;4556;49.150;8.808;2023-03-16T19:56:47;7.90;99.90
9043;DHT22;4556;49.150;8.808;2023-03-16T19:59:16;7.90;99.90
9043;DHT22;4556;49.150;8.808;2023-03-16T20:01:44;8.60;99.90
9043;DHT22;4556;49.150;8.808;2023-03-16T20:04:14;8.00;99.90
9043;DHT22;4556;49.150;8.808;2023-03-16T20:06:42;7.90;99.90
9043;DHT22;4556;49.150;8.808;2023-03-16T20:09:09;8.00;99.90
9043;DHT22;4556;49.150;8.808;2023-03-16T20:11:37;7.90;99.90
9043;DHT22;4556;49.150;8.808;2023-03-16T20:14:04;7.90;99.90
9043;DHT22;4556;49.150;8.808;2023-03-16T20:16:34;7.90;99.90
9043;DHT22;4556;49.150;8.808;2023-03-16T20:19:08;7.70;99.90
9043;DHT22;4556;49.150;8.808;2023-03-16T20:21:35;7.80;99.90
9043;DHT22;4556;49.150;8.808;2023-03-16T20:24:03;7.70;99.90
9043;DHT22;4556;49.150;8.808;2023-03-16T20:26:45;7.80;99.90
9043;DHT22;4556;49.150;8.808;2023-03-16T20:29:27;8.40;99.90
9043;DHT22;4556;49.150;8.808;2023-03-16T20:31:57;7.70;99.90
9043;DHT22;4556;49.150;8.808;2023-03-16T20:34:28;8.30;99.90
9043;DHT22;4556;49.150;8.808;2023-03-16T20:36:55;7.60;99.90
9043;DHT22;4556;49.150;8.808;2023-03-16T20:39:28;7.70;99.90
9043;DHT22;4556;49.150;8.808;2023-03-16T20:42:03;8.00;99.90
9043;DHT22;4556;49.150;8.808;2023-03-16T20:44:31;7.60;99.90
9043;DHT22;4556;49.150;8.808;2023-03-16T20:47:07;7.60;99.90
9043;DHT22;4556;49.150;8.808;2023-03-16T20:49:50;7.70;99.90
9043;DHT22;4556;49.150;8.808;2023-03-16T20:52:23;7.50;99.90
9043;DHT22;4556;49.150;8.808;2023-03-16T20:54:54;7.60;99.90
9043;DHT22;4556;49.150;8.808;2023-03-16T20:57:32;7.60;99.90
9043;DHT22;4556;49.150;8.808;2023-03-16T20:59:59;7.50;99.90
9043;DHT22;4556;49.150;8.808;2023-03-16T21:02:37;7.40;99.90
9043;DHT22;4556;49.150;8.808;2023-03-16T21:05:09;7.30;99.90
9043;DHT22;4556;49.150;8.808;2023-03-16T21:07:38;7.20;99.90
9043;DHT22;4556;49.150;8.808;2023-03-16T21:10:14;7.20;99.90
9043;DHT22;4556;49.150;8.808;2023-03-16T21:12:43;7.00;99.90
9043;DHT22;4556;49.150;8.808;2023-03-16T21:15:18;7.00;99.90
9043;DHT22;4556;49.150;8.808;2023-03-16T21:17:52;7.00;99.90
9043;DHT22;4556;49.150;8.808;2023-03-16T21:20:20;7.60;99.90
9043;DHT22;4556;49.150;8.808;2023-03-16T21:22:50;7.10;99.90
9043;DHT22;4556;49.150;8.808;2023-03-16T21:25:20;7.10;99.90
9043;DHT22;4556;49.150;8.808;2023-03-16T21:27:47;7.10;99.90
9043;DHT22;4556;49.150;8.808;2023-03-16T21:30:24;7.70;99.90
9043;DHT22;4556;49.150;8.808;2023-03-16T21:32:54;7.10;99.90
9043;DHT22;4556;49.150;8.808;2023-03-16T21:35:40;7.00;99.90
9043;DHT22;4556;49.150;8.808;2023-03-16T21:38:11;7.10;99.90
9043;DHT22;4556;49.150;8.808;2023-03-16T21:40:39;7.40;99.90
9043;DHT22;4556;49.150;8.808;2023-03-16T21:43:06;6.90;99.90
9043;DHT22;4556;49.150;8.808;2023-03-16T21:45:33;7.10;99.90
9043;DHT22;4556;49.150;8.808;2023-03-16T21:48:03;6.80;99.90
9043;DHT22;4556;49.150;8.808;2023-03-16T21:50:43;6.80;99.90
9043;DHT22;4556;49.150;8.808;2023-03-16T21:53:24;6.80;99.90
9043;DHT22;4556;49.150;8.808;2023-03-16T21:55:56;7.60;99.90
9043;DHT22;4556;49.150;8.808;2023-03-16T21:58:23;6.90;99.90
9043;DHT22;4556;49.150;8.808;2023-03-16T22:00:58;7.00;99.90
9043;DHT22;4556;49.150;8.808;2023-03-16T22:03:28;6.80;99.90
9043;DHT22;4556;49.150;8.808;2023-03-16T22:05:57;6.70;99.90
9043;DHT22;4556;49.150;8.808;2023-03-16T22:08:27;7.40;99.90
9043;DHT22;4556;49.150;8.808;2023-03-16T22:10:55;7.40;99.90
9043;DHT22;4556;49.150;8.808;2023-03-16T22:13:22;6.70;99.90
9043;DHT22;4556;49.150;8.808;2023-03-16T22:15:51;7.10;99.90
9043;DHT22;4556;49.150;8.808;2023-03-16T22:18:30;6.80;99.90
9043;DHT22;4556;49.150;8.808;2023-03-16T22:21:00;6.70;99.90
9043;DHT22;4556;49.150;8.808;2023-03-16T22:23:32;6.70;99.90
9043;DHT22;4556;49.150;8.808;2023-03-16T22:26:20;6.90;99.90
9043;DHT22;4556;49.150;8.808;2023-03-16T22:28:47;6.90;99.90
9043;DHT22;4556;49.150;8.808;2023-03-16T22:31:18;6.90;99.90
9043;DHT22;4556;49.150;8.808;2023-03-16T22:34:01;6.90;99.90
9043;DHT22;4556;49.150;8.808;2023-03-16T22:36:32;6.90;99.90
9043;DHT22;4556;49.150;8.808;2023-03-16T22:39:02;7.00;99.90
9043;DHT22;4556;49.150;8.808;2023-03-16T22:41:30;7.40;99.90
9043;DHT22;4556;49.150;8.808;2023-03-16T22:44:01;6.90;99.90
9043;DHT22;4556;49.150;8.808;2023-03-16T22:46:32;7.00;99.90
9043;DHT22;4556;49.150;8.808;2023-03-16T22:49:31;7.10;99.90
9043;DHT22;4556;49.150;8.808;2023-03-16T22:51:59;8.00;99.90
9043;DHT22;4556;49.150;8.808;2023-03-16T22:54:27;8.00;99.90
9043;DHT22;4556;49.150;8.808;2023-03-16T22:57:02;7.40;99.90
9043;DHT22;4556;49.150;8.808;2023-03-16T22:59:34;6.90;99.90
9043;DHT22;4556;49.150;8.808;2023-03-16T23:02:01;6.90;99.90
9043;DHT22;4556;49.150;8.808;2023-03-16T23:04:50;6.70;99.90
9043;DHT22;4556;49.150;8.808;2023-03-16T23:07:23;6.80;99.90
9043;DHT22;4556;49.150;8.808;2023-03-16T23:09:50;6.90;99.90
9043;DHT22;4556;49.150;8.808;2023-03-16T23:12:20;7.60;99.90
9043;DHT22;4556;49.150;8.808;2023-03-16T23:14:49;6.50;99.90
9043;DHT22;4556;49.150;8.808;2023-03-16T23:17:18;6.50;99.90
9043;DHT22;4556;49.150;8.808;2023-03-16T23:19:57;6.50;99.90
9043;DHT22;4556;49.150;8.808;2023-03-16T23:22:27;6.10;99.90
9043;DHT22;4556;49.150;8.808;2023-03-16T23:25:04;6.60;99.90
9043;DHT22;4556;49.150;8.808;2023-03-16T23:27:31;6.60;99.90
9043;DHT22;4556;49.150;8.808;2023-03-16T23:32:48;6.50;99.90
9043;DHT22;4556;49.150;8.808;2023-03-16T23:35:34;6.30;99.90
9043;DHT22;4556;49.150;8.808;2023-03-16T23:38:18;6.50;99.90
9043;DHT22;4556;49.150;8.808;2023-03-16T23:40:53;6.60;99.90
9043;DHT22;4556;49.150;8.808;2023-03-16T23:43:29;6.30;99.90
9043;DHT22;4556;49.150;8.808;2023-03-16T23:46:03;6.20;99.90
9043;DHT22;4556;49.150;8.808;2023-03-16T23:48:31;6.10;99.90
9043;DHT22;4556;49.150;8.808;2023-03-16T23:51:00;6.30;99.90
9043;DHT22;4556;49.150;8.808;2023-03-16T23:53:30;6.30;99.90
9043;DHT22;4556;49.150;8.808;2023-03-16T23:56:00;6.40;99.90
9043;DHT22;4556;49.150;8.808;2023-03-16T23:58:30;6.50;99.90
